Terminal Aerodrome Forecast
Issued by NWS Mt. Holly, NJ

Home | Current Version | Previous Version | Text Only | Print | Product List | Glossary On
Versions: 1 2 3 4 5 6 7 8 9 10 11 12 13 14 15 16 17 18 19 20 21
000
FTUS41 KPHI 290500
TAFRDG
TAF
KRDG 290528Z 2906/3006 VRB03KT P6SM SCT100 BKN250
     FM290900 15003KT P6SM BKN050
     FM291800 18006KT P6SM BKN100
     FM300300 VRB03KT P6SM BKN050=

USA.gov is the U.S. government's official web portal to all federal, state and local government web resources and services.